createdAt,value
2023-02-12T00:01:25.292Z,15.57
2023-02-12T00:03:52.929Z,14.13
2023-02-12T00:06:20.427Z,13.52
2023-02-12T00:08:51.379Z,13.02
2023-02-12T00:11:21.367Z,12.32
2023-02-12T00:13:56.452Z,12.95
2023-02-12T00:16:27.540Z,13.75
2023-02-12T00:18:57.681Z,16.02
2023-02-12T00:21:25.990Z,17.13
2023-02-12T00:23:55.210Z,21.05
2023-02-12T00:26:23.635Z,22.77
2023-02-12T00:28:53.264Z,25.40
2023-02-12T00:31:26.886Z,24.05
2023-02-12T00:33:56.920Z,23.10
2023-02-12T00:36:26.723Z,24.75
2023-02-12T00:38:55.778Z,25.48
2023-02-12T00:41:25.212Z,24.02
2023-02-12T00:43:52.679Z,20.73
2023-02-12T00:46:20.081Z,22.73
2023-02-12T00:48:47.361Z,22.77
2023-02-12T00:51:15.174Z,20.35
2023-02-12T00:53:43.456Z,19.00
2023-02-12T00:56:10.762Z,18.67
2023-02-12T00:58:38.120Z,20.58
2023-02-12T01:01:07.552Z,19.30
2023-02-12T01:03:36.314Z,19.30
2023-02-12T01:06:03.737Z,17.55
2023-02-12T01:08:30.924Z,16.55
2023-02-12T01:11:00.710Z,16.23
2023-02-12T01:13:30.731Z,16.83
2023-02-12T01:16:11.112Z,18.33
2023-02-12T01:18:39.272Z,16.92
2023-02-12T01:21:18.512Z,18.08
2023-02-12T01:23:46.647Z,18.80
2023-02-12T01:26:15.689Z,18.88
2023-02-12T01:28:45.296Z,18.98
2023-02-12T01:31:15.862Z,20.40
2023-02-12T01:33:44.247Z,24.35
2023-02-12T01:36:11.779Z,24.48
2023-02-12T01:38:39.248Z,24.23
2023-02-12T01:41:10.190Z,24.48
2023-02-12T01:43:39.265Z,23.50
2023-02-12T01:46:08.245Z,23.33
2023-02-12T01:48:42.742Z,23.25
2023-02-12T01:51:15.064Z,22.20
2023-02-12T01:53:49.020Z,20.52
2023-02-12T01:56:18.818Z,20.20
2023-02-12T01:58:49.748Z,20.80
2023-02-12T02:01:25.069Z,20.05
2023-02-12T02:03:58.718Z,20.27
2023-02-12T02:06:31.268Z,20.10
2023-02-12T02:09:01.874Z,19.55
2023-02-12T02:11:47.687Z,19.63
2023-02-12T02:14:33.073Z,20.10
2023-02-12T02:17:13.482Z,21.40
2023-02-12T02:19:51.866Z,22.35
2023-02-12T02:22:24.690Z,20.45
2023-02-12T02:25:10.273Z,20.48
2023-02-12T02:27:46.778Z,18.83
2023-02-12T02:30:28.898Z,19.95
2023-02-12T02:32:59.282Z,19.50
2023-02-12T02:35:34.430Z,20.80
2023-02-12T02:38:13.355Z,20.27
2023-02-12T02:40:56.040Z,19.80
2023-02-12T02:43:30.149Z,20.92
2023-02-12T02:46:06.317Z,21.15
2023-02-12T02:48:44.059Z,22.08
2023-02-12T02:51:22.620Z,21.55
2023-02-12T02:53:55.530Z,21.65
2023-02-12T02:56:24.769Z,23.02
2023-02-12T02:58:58.505Z,22.27
2023-02-12T03:01:37.110Z,21.85
2023-02-12T03:04:08.404Z,21.17
2023-02-12T03:06:45.313Z,21.63
2023-02-12T03:09:37.354Z,21.60
2023-02-12T03:12:12.895Z,21.92
2023-02-12T03:14:47.288Z,30.23
2023-02-12T03:17:21.755Z,35.55
2023-02-12T03:20:30.364Z,33.47
2023-02-12T03:23:13.620Z,29.67
2023-02-12T03:25:45.461Z,26.25
2023-02-12T03:28:23.906Z,26.63
2023-02-12T03:31:33.160Z,25.63
2023-02-12T03:34:13.899Z,27.25
2023-02-12T03:36:55.354Z,26.42
2023-02-12T03:39:50.466Z,25.20
2023-02-12T03:42:23.221Z,25.33
2023-02-12T03:44:59.096Z,24.67
2023-02-12T03:47:48.616Z,25.35
2023-02-12T03:50:42.653Z,25.20
2023-02-12T03:53:10.000Z,22.92
2023-02-12T03:55:43.087Z,23.85
2023-02-12T03:58:19.544Z,21.35
2023-02-12T04:00:47.498Z,20.35
2023-02-12T04:03:14.714Z,20.23
2023-02-12T04:05:41.994Z,20.17
2023-02-12T04:08:12.882Z,21.42
2023-02-12T04:10:53.696Z,19.20
2023-02-12T04:13:54.168Z,19.90
2023-02-12T04:17:03.405Z,20.00
2023-02-12T04:19:51.512Z,21.98
2023-02-12T04:22:49.247Z,23.15
2023-02-12T04:25:27.355Z,23.05
2023-02-12T04:28:10.599Z,24.42
2023-02-12T04:30:48.956Z,24.00
2023-02-12T04:33:22.044Z,26.33
2023-02-12T04:35:55.970Z,25.92
2023-02-12T04:38:29.575Z,25.55
2023-02-12T04:40:57.179Z,23.95
2023-02-12T04:43:36.059Z,24.88
2023-02-12T04:46:06.430Z,24.50
2023-02-12T04:48:34.775Z,24.58
2023-02-12T04:51:02.419Z,24.60
2023-02-12T04:53:29.568Z,24.75
2023-02-12T04:55:58.119Z,23.55
2023-02-12T04:58:25.489Z,23.77
2023-02-12T05:00:52.779Z,23.25
2023-02-12T05:03:19.927Z,24.33
2023-02-12T05:05:47.694Z,23.25
2023-02-12T05:08:14.932Z,22.70
2023-02-12T05:10:42.106Z,23.85
2023-02-12T05:13:09.403Z,22.13
2023-02-12T05:15:39.732Z,24.50
2023-02-12T05:18:07.031Z,24.63
2023-02-12T05:20:34.150Z,25.42
2023-02-12T05:23:01.326Z,25.17
2023-02-12T05:25:28.740Z,24.38
2023-02-12T05:27:57.256Z,24.05
2023-02-12T05:30:24.537Z,23.20
2023-02-12T05:32:51.800Z,23.73
2023-02-12T05:35:19.149Z,23.70
2023-02-12T05:37:46.328Z,22.85
2023-02-12T05:40:14.037Z,23.85
2023-02-12T05:42:41.449Z,22.90
2023-02-12T05:45:09.057Z,23.52
2023-02-12T05:47:36.333Z,22.52
2023-02-12T05:50:04.302Z,21.15
2023-02-12T05:52:31.425Z,22.23
2023-02-12T05:54:58.525Z,21.33
2023-02-12T05:57:26.113Z,21.77
2023-02-12T05:59:53.458Z,22.20
2023-02-12T06:02:20.990Z,23.13
2023-02-12T06:04:48.753Z,22.83
2023-02-12T06:07:15.941Z,24.95
2023-02-12T06:09:43.234Z,22.90
2023-02-12T06:12:10.358Z,25.75
2023-02-12T06:14:37.530Z,25.45
2023-02-12T06:17:04.688Z,25.83
2023-02-12T06:19:31.797Z,25.60
2023-02-12T06:21:59.085Z,24.40
2023-02-12T06:24:26.424Z,23.33
2023-02-12T06:26:53.540Z,23.50
2023-02-12T06:29:21.379Z,23.95
2023-02-12T06:31:48.680Z,24.35
2023-02-12T06:34:19.140Z,23.27
2023-02-12T06:36:47.436Z,22.13
2023-02-12T06:39:16.655Z,22.50
2023-02-12T06:41:46.378Z,22.48
2023-02-12T06:44:14.314Z,22.60
2023-02-12T06:46:41.488Z,22.85
2023-02-12T06:49:08.991Z,23.42
2023-02-12T06:51:38.569Z,22.40
2023-02-12T06:54:05.814Z,23.65
2023-02-12T06:56:33.153Z,23.92
2023-02-12T06:59:01.408Z,22.15
2023-02-12T07:01:30.832Z,21.27
2023-02-12T07:04:00.611Z,22.30
2023-02-12T07:06:29.898Z,21.88
2023-02-12T07:08:57.575Z,22.20
2023-02-12T07:11:29.288Z,22.58
2023-02-12T07:13:56.649Z,22.10
2023-02-12T07:16:24.425Z,22.42
2023-02-12T07:18:52.143Z,22.67
2023-02-12T07:21:20.070Z,22.67
2023-02-12T07:23:52.207Z,23.77
2023-02-12T07:26:20.806Z,21.67
2023-02-12T07:28:48.609Z,20.65
2023-02-12T07:31:21.430Z,21.60
2023-02-12T07:33:49.603Z,21.63
2023-02-12T07:36:19.168Z,20.25
2023-02-12T07:38:47.182Z,20.92
2023-02-12T07:41:22.699Z,21.80
2023-02-12T07:43:55.711Z,21.08
2023-02-12T07:46:32.549Z,21.52
2023-02-12T07:49:01.706Z,21.60
2023-02-12T07:51:29.379Z,21.83
2023-02-12T07:53:57.084Z,20.92
2023-02-12T07:56:31.170Z,21.13
2023-02-12T07:59:01.049Z,20.15
2023-02-12T08:01:31.931Z,20.83
2023-02-12T08:04:05.929Z,20.75
2023-02-12T08:06:37.909Z,20.15
2023-02-12T08:09:08.501Z,20.75
2023-02-12T08:11:37.076Z,20.67
2023-02-12T08:14:05.220Z,20.00
2023-02-12T08:16:36.676Z,20.10
2023-02-12T08:19:16.636Z,20.52
2023-02-12T08:21:45.253Z,19.63
2023-02-12T08:24:12.569Z,19.70
2023-02-12T08:26:40.224Z,20.20
2023-02-12T08:29:10.886Z,19.95
2023-02-12T08:31:41.990Z,20.77
2023-02-12T08:34:18.915Z,19.90
2023-02-12T08:36:48.392Z,20.80
2023-02-12T08:39:16.342Z,21.33
2023-02-12T08:41:44.042Z,21.70
2023-02-12T08:44:12.386Z,21.20
2023-02-12T08:46:44.679Z,22.35
2023-02-12T08:49:15.566Z,21.50
2023-02-12T08:51:45.805Z,21.23
2023-02-12T08:54:15.904Z,20.52
2023-02-12T08:56:45.400Z,21.83
2023-02-12T08:59:14.081Z,21.60
2023-02-12T09:01:45.070Z,21.23
2023-02-12T09:04:22.030Z,21.90
2023-02-12T09:06:50.793Z,22.55
2023-02-12T09:09:18.355Z,23.00
2023-02-12T09:11:46.141Z,21.88
2023-02-12T09:14:16.477Z,22.92
2023-02-12T09:16:43.939Z,23.50
2023-02-12T09:19:13.936Z,21.42
2023-02-12T09:21:42.567Z,22.83
2023-02-12T09:24:10.465Z,23.27
2023-02-12T09:26:37.992Z,23.13
2023-02-12T09:29:05.461Z,25.58
2023-02-12T09:31:33.755Z,23.52
2023-02-12T09:34:03.928Z,23.67
2023-02-12T09:36:32.308Z,23.77
2023-02-12T09:39:00.918Z,24.63
2023-02-12T09:41:46.574Z,23.25
2023-02-12T09:44:32.222Z,25.48
2023-02-12T09:47:04.646Z,24.48
2023-02-12T09:49:52.125Z,23.33
2023-02-12T09:52:30.369Z,23.25
2023-02-12T09:54:58.602Z,24.42
2023-02-12T09:57:31.669Z,25.42
2023-02-12T10:00:03.842Z,23.25
2023-02-12T10:02:35.235Z,24.25
2023-02-12T10:05:03.672Z,23.83
2023-02-12T10:07:37.083Z,25.65
2023-02-12T10:10:26.128Z,24.88
2023-02-12T10:13:03.859Z,24.55
2023-02-12T10:16:10.453Z,24.80
2023-02-12T10:18:58.287Z,24.65
2023-02-12T10:21:40.761Z,24.35
2023-02-12T10:24:34.605Z,24.27
2023-02-12T10:27:18.144Z,24.83
2023-02-12T10:29:48.064Z,25.00
2023-02-12T10:32:31.244Z,25.45
2023-02-12T10:35:26.619Z,24.45
2023-02-12T10:38:18.483Z,24.85
2023-02-12T10:40:46.848Z,23.17
2023-02-12T10:43:45.158Z,21.80
2023-02-12T10:46:25.648Z,23.48
2023-02-12T10:48:59.884Z,22.02
2023-02-12T10:52:35.455Z,22.20
2023-02-12T10:55:02.943Z,21.30
2023-02-12T10:57:34.448Z,22.30
2023-02-12T11:00:38.999Z,21.13
2023-02-12T11:03:13.896Z,20.23
2023-02-12T11:05:45.516Z,21.45
2023-02-12T11:08:36.596Z,21.98
2023-02-12T11:11:08.778Z,20.05
2023-02-12T11:13:38.109Z,20.98
2023-02-12T11:16:07.896Z,19.85
2023-02-12T11:18:37.837Z,19.77
2023-02-12T11:21:11.800Z,19.05
2023-02-12T11:23:46.378Z,18.73
2023-02-12T11:26:20.717Z,19.50
2023-02-12T11:29:16.789Z,18.85
2023-02-12T11:32:01.342Z,18.23
2023-02-12T11:34:30.119Z,20.88
2023-02-12T11:36:58.140Z,20.30
2023-02-12T11:39:33.532Z,18.63
2023-02-12T11:42:15.202Z,17.58
2023-02-12T11:44:49.175Z,16.73
2023-02-12T11:47:24.257Z,17.17
2023-02-12T11:50:19.854Z,16.95
2023-02-12T11:52:51.532Z,16.80
2023-02-12T11:55:27.117Z,16.45
2023-02-12T11:58:16.794Z,15.95
2023-02-12T12:01:05.210Z,14.35
2023-02-12T12:03:53.965Z,13.45
2023-02-12T12:06:52.072Z,14.50
2023-02-12T12:09:33.378Z,15.15
2023-02-12T12:12:18.224Z,12.00
2023-02-12T12:15:13.312Z,12.10
2023-02-12T12:18:31.389Z,11.18
2023-02-12T12:21:40.731Z,11.18
2023-02-12T12:24:34.547Z,10.43
2023-02-12T12:27:39.774Z,10.55
2023-02-12T12:30:17.578Z,10.52
2023-02-12T12:32:48.567Z,11.50
2023-02-12T12:35:21.880Z,11.05
2023-02-12T12:38:01.616Z,11.88
2023-02-12T12:40:43.244Z,11.27
2023-02-12T12:43:19.624Z,14.23
2023-02-12T12:46:08.106Z,12.90
2023-02-12T12:49:08.143Z,11.65
2023-02-12T12:52:08.896Z,13.07
2023-02-12T12:54:48.858Z,13.52
2023-02-12T12:57:44.591Z,11.93
2023-02-12T13:00:48.843Z,11.77
2023-02-12T13:05:59.646Z,10.77
2023-02-12T13:08:45.418Z,10.57
2023-02-12T13:11:34.232Z,11.43
2023-02-12T13:14:26.163Z,12.35
2023-02-12T13:17:29.160Z,11.30
2023-02-12T13:19:59.268Z,11.50
2023-02-12T13:22:49.855Z,11.20
2023-02-12T13:25:32.171Z,11.60
2023-02-12T13:28:01.648Z,11.38
2023-02-12T13:30:45.129Z,10.38
2023-02-12T13:33:26.496Z,11.13
2023-02-12T13:35:59.865Z,11.52
2023-02-12T13:41:07.532Z,10.23
2023-02-12T13:43:40.082Z,9.75
2023-02-12T13:46:36.417Z,9.70
2023-02-12T13:49:21.918Z,10.88
2023-02-12T13:52:17.711Z,10.52
2023-02-12T13:54:50.845Z,9.82
2023-02-12T13:57:20.820Z,10.43
2023-02-12T13:59:53.976Z,10.63
2023-02-12T14:02:43.003Z,10.27
2023-02-12T14:05:21.658Z,10.48
2023-02-12T14:07:52.646Z,10.00
2023-02-12T14:11:03.307Z,10.63
2023-02-12T14:13:46.306Z,10.07
2023-02-12T14:16:42.644Z,9.57
2023-02-12T14:19:47.409Z,9.27
2023-02-12T14:22:27.016Z,9.82
2023-02-12T14:24:56.531Z,9.88
2023-02-12T14:27:29.419Z,9.65
2023-02-12T14:30:09.941Z,10.35
2023-02-12T14:32:46.502Z,9.02
2023-02-12T14:35:41.497Z,9.82
2023-02-12T14:38:20.568Z,9.68
2023-02-12T14:40:49.685Z,10.20
2023-02-12T14:43:31.276Z,9.95
2023-02-12T14:46:24.096Z,10.05
2023-02-12T14:48:51.463Z,9.00
2023-02-12T14:51:29.274Z,9.65
2023-02-12T14:53:58.809Z,9.27
2023-02-12T14:56:27.063Z,8.98
2023-02-12T14:58:58.472Z,8.98
2023-02-12T15:01:32.370Z,8.55
2023-02-12T15:04:12.007Z,8.85
2023-02-12T15:06:49.216Z,9.50
2023-02-12T15:09:32.469Z,8.27
2023-02-12T15:12:18.058Z,9.07
2023-02-12T15:14:52.063Z,8.23
2023-02-12T15:17:26.949Z,9.32
2023-02-12T15:20:02.957Z,9.10
2023-02-12T15:22:34.275Z,8.48
2023-02-12T15:25:18.162Z,8.73
2023-02-12T15:27:49.492Z,8.32
2023-02-12T15:30:25.983Z,8.50
2023-02-12T15:32:57.071Z,8.27
2023-02-12T15:35:32.937Z,8.93
2023-02-12T15:38:02.282Z,9.30
2023-02-12T15:40:32.098Z,9.10
2023-02-12T15:43:07.827Z,8.93
2023-02-12T15:45:36.886Z,8.63
2023-02-12T15:48:10.445Z,7.88
2023-02-12T15:51:07.002Z,8.35
2023-02-12T15:53:35.136Z,8.32
2023-02-12T15:56:03.350Z,8.32
2023-02-12T15:58:52.905Z,7.57
2023-02-12T16:01:36.222Z,7.07
2023-02-12T16:04:08.571Z,6.90
2023-02-12T16:06:37.356Z,8.13
2023-02-12T16:09:16.279Z,8.02
2023-02-12T16:11:48.641Z,7.25
2023-02-12T16:14:32.230Z,7.75
2023-02-12T16:17:01.653Z,7.88
2023-02-12T16:19:33.590Z,7.85
2023-02-12T16:22:17.033Z,8.45
2023-02-12T16:24:51.135Z,7.72
2023-02-12T16:27:23.296Z,8.15
2023-02-12T16:29:57.454Z,7.40
2023-02-12T16:32:33.069Z,7.15
2023-02-12T16:35:16.170Z,7.07
2023-02-12T16:37:49.695Z,7.97
2023-02-12T16:40:17.763Z,7.05
2023-02-12T16:42:48.194Z,7.55
2023-02-12T16:45:37.070Z,7.38
2023-02-12T16:48:09.570Z,7.03
2023-02-12T16:50:44.155Z,7.50
2023-02-12T16:53:30.349Z,7.68
2023-02-12T16:56:02.412Z,7.00
2023-02-12T16:58:30.224Z,7.88
2023-02-12T17:01:05.674Z,7.53
2023-02-12T17:03:35.140Z,6.75
2023-02-12T17:06:12.010Z,7.78
2023-02-12T17:08:42.290Z,7.03
2023-02-12T17:11:10.925Z,7.20
2023-02-12T17:13:38.903Z,6.82
2023-02-12T17:16:07.408Z,7.30
2023-02-12T17:18:43.460Z,7.35
2023-02-12T17:21:41.193Z,6.70
2023-02-12T17:24:26.486Z,7.10
2023-02-12T17:26:54.951Z,6.60
2023-02-12T17:29:25.106Z,6.72
2023-02-12T17:31:55.613Z,6.75
2023-02-12T17:34:30.224Z,6.80
2023-02-12T17:37:19.940Z,8.88
2023-02-12T17:39:48.727Z,10.90
2023-02-12T17:42:17.112Z,9.40
2023-02-12T17:44:47.974Z,10.10
2023-02-12T17:47:16.971Z,9.10
2023-02-12T17:49:49.230Z,9.48
2023-02-12T17:52:21.462Z,10.70
2023-02-12T17:54:50.299Z,9.05
2023-02-12T17:57:21.325Z,8.15
2023-02-12T17:59:59.598Z,7.95
2023-02-12T18:02:42.237Z,7.85
2023-02-12T18:05:27.268Z,8.13
2023-02-12T18:08:00.195Z,7.53
2023-02-12T18:10:30.132Z,7.05
2023-02-12T18:12:58.414Z,6.82
2023-02-12T18:15:31.041Z,7.00
2023-02-12T18:18:00.284Z,6.75
2023-02-12T18:20:28.475Z,7.07
2023-02-12T18:22:58.243Z,7.28
2023-02-12T18:25:26.882Z,6.53
2023-02-12T18:27:54.895Z,7.22
2023-02-12T18:30:24.440Z,7.53
2023-02-12T18:33:04.402Z,7.47
2023-02-12T18:35:34.689Z,7.43
2023-02-12T18:38:02.818Z,7.63
2023-02-12T18:40:31.095Z,7.93
2023-02-12T18:42:59.291Z,7.97
2023-02-12T18:45:26.912Z,9.93
2023-02-12T18:48:09.432Z,10.20
2023-02-12T18:50:55.624Z,10.82
2023-02-12T18:53:27.755Z,11.15
2023-02-12T18:55:57.025Z,11.38
2023-02-12T18:58:25.376Z,11.38
2023-02-12T19:00:52.949Z,11.57
2023-02-12T19:03:20.425Z,10.52
2023-02-12T19:05:48.537Z,10.45
2023-02-12T19:08:15.884Z,12.57
2023-02-12T19:10:43.693Z,12.05
2023-02-12T19:13:12.359Z,12.13
2023-02-12T19:15:40.990Z,10.45
2023-02-12T19:18:08.776Z,10.38
2023-02-12T19:20:41.923Z,11.05
2023-02-12T19:23:09.611Z,12.05
2023-02-12T19:25:43.534Z,11.88
2023-02-12T19:28:12.710Z,11.40
2023-02-12T19:30:42.610Z,10.27
2023-02-12T19:33:10.514Z,9.80
2023-02-12T19:35:38.480Z,9.32
2023-02-12T19:38:06.499Z,8.25
2023-02-12T19:40:35.103Z,7.85
2023-02-12T19:43:02.687Z,8.18
2023-02-12T19:45:32.671Z,13.93
2023-02-12T19:48:00.429Z,18.13
2023-02-12T19:50:28.775Z,18.67
2023-02-12T19:52:57.045Z,22.02
2023-02-12T19:55:25.290Z,23.08
2023-02-12T19:57:52.835Z,23.60
2023-02-12T20:00:21.176Z,19.17
2023-02-12T20:02:48.796Z,17.10
2023-02-12T20:05:16.501Z,13.45
2023-02-12T20:07:44.612Z,16.30
2023-02-12T20:10:14.548Z,21.08
2023-02-12T20:12:46.498Z,19.20
2023-02-12T20:15:14.370Z,19.80
2023-02-12T20:17:42.099Z,17.55
2023-02-12T20:20:10.832Z,17.52
2023-02-12T20:22:39.178Z,19.10
2023-02-12T20:25:08.222Z,20.05
2023-02-12T20:27:35.987Z,19.83
2023-02-12T20:30:03.731Z,19.40
2023-02-12T20:32:31.108Z,22.02
2023-02-12T20:34:58.864Z,24.42
2023-02-12T20:37:26.172Z,26.45
2023-02-12T20:39:53.731Z,28.50
2023-02-12T20:42:21.146Z,30.67
2023-02-12T20:44:48.655Z,33.10
2023-02-12T20:47:16.013Z,33.05
2023-02-12T20:49:43.338Z,32.85
2023-02-12T20:52:10.674Z,33.20
2023-02-12T20:54:39.502Z,32.03
2023-02-12T20:57:07.968Z,30.75
2023-02-12T20:59:35.483Z,27.35
2023-02-12T21:02:02.989Z,24.83
2023-02-12T21:04:31.886Z,23.92
2023-02-12T21:07:00.600Z,22.02
2023-02-12T21:09:28.733Z,26.42
2023-02-12T21:11:58.571Z,27.10
2023-02-12T21:14:29.669Z,27.25
2023-02-12T21:16:57.307Z,27.38
2023-02-12T21:19:25.336Z,28.02
2023-02-12T21:21:53.168Z,27.73
2023-02-12T21:24:28.214Z,25.15
2023-02-12T21:26:56.564Z,22.90
2023-02-12T21:29:26.848Z,25.02
2023-02-12T21:31:55.646Z,23.95
2023-02-12T21:34:23.803Z,24.00
2023-02-12T21:36:54.583Z,24.50
2023-02-12T21:39:27.659Z,23.27
2023-02-12T21:42:03.048Z,21.27
2023-02-12T21:44:32.837Z,19.25
2023-02-12T21:47:00.686Z,17.02
2023-02-12T21:49:28.775Z,16.40
2023-02-12T21:51:59.150Z,16.27
2023-02-12T21:54:27.497Z,16.15
2023-02-12T21:56:55.320Z,14.85
2023-02-12T21:59:23.669Z,13.93
2023-02-12T22:01:55.173Z,13.50
2023-02-12T22:04:58.338Z,15.65
2023-02-12T22:07:31.439Z,15.63
2023-02-12T22:10:02.314Z,16.45
2023-02-12T22:12:35.114Z,18.50
2023-02-12T22:15:04.046Z,18.52
2023-02-12T22:17:34.613Z,17.70
2023-02-12T22:20:05.190Z,15.82
2023-02-12T22:22:34.085Z,14.13
2023-02-12T22:25:01.850Z,13.10
2023-02-12T22:27:34.949Z,12.57
2023-02-12T22:30:05.842Z,11.07
2023-02-12T22:32:41.277Z,11.45
2023-02-12T22:35:09.929Z,11.25
2023-02-12T22:37:42.379Z,10.82
2023-02-12T22:40:10.896Z,10.38
2023-02-12T22:42:38.632Z,10.02
2023-02-12T22:45:07.645Z,11.80
2023-02-12T22:47:36.266Z,8.30
2023-02-12T22:50:17.306Z,8.20
2023-02-12T22:52:47.889Z,8.05
2023-02-12T22:55:18.764Z,8.43
2023-02-12T22:57:54.400Z,8.57
2023-02-12T23:00:23.034Z,9.32
2023-02-12T23:02:50.977Z,9.57
2023-02-12T23:05:18.664Z,9.27
2023-02-12T23:07:46.659Z,10.90
2023-02-12T23:10:14.766Z,10.35
2023-02-12T23:12:42.957Z,10.70
2023-02-12T23:15:15.024Z,10.95
2023-02-12T23:17:44.249Z,10.82
2023-02-12T23:20:14.456Z,11.15
2023-02-12T23:22:43.341Z,10.52
2023-02-12T23:25:11.521Z,13.90
2023-02-12T23:27:40.325Z,13.93
2023-02-12T23:30:10.070Z,14.57
2023-02-12T23:32:40.593Z,15.50
2023-02-12T23:35:09.222Z,14.80
2023-02-12T23:37:37.742Z,14.70
2023-02-12T23:40:07.320Z,12.55
2023-02-12T23:42:36.474Z,12.15
2023-02-12T23:45:11.062Z,11.80
2023-02-12T23:47:39.529Z,11.85
2023-02-12T23:50:08.649Z,11.43
2023-02-12T23:52:38.480Z,11.68
2023-02-12T23:55:07.599Z,11.10
2023-02-12T23:57:36.864Z,11.60
